Time;durP1;ratioP1;P1;durP2;ratioP2;P2;SDS_P1;SDS_P2;PMS_P1;PMS_P2;Temp;Humidity;BMP_temperature;BMP_pressure;BME280_temperature;BME280_humidity;BME280_pressure;Samples;Min_cycle;Max_cycle;Signal;HPM_P1;HPM_P2
2023/06/09 00:02:18;;;;;;;6.13;2.78;;;21.80;57.80;;;;;;5112638;28;20035;-75
2023/06/09 00:04:44;;;;;;;5.20;2.88;;;21.80;57.70;;;;;;5113626;28;20028;-75
2023/06/09 00:07:10;;;;;;;9.50;2.95;;;21.70;57.60;;;;;;5116548;28;20030;-75
2023/06/09 00:09:35;;;;;;;6.15;2.53;;;21.70;57.60;;;;;;5116716;28;20039;-75
2023/06/09 00:12:02;;;;;;;5.88;2.92;;;21.70;57.60;;;;;;5116522;28;20035;-75
2023/06/09 00:14:28;;;;;;;8.02;2.60;;;21.60;58.10;;;;;;5116586;28;20039;-75
2023/06/09 00:16:55;;;;;;;6.03;2.58;;;21.60;58.30;;;;;;5116555;28;20017;-75
2023/06/09 00:19:22;;;;;;;5.05;2.72;;;21.60;58.30;;;;;;5116594;28;20082;-75
2023/06/09 00:21:50;;;;;;;7.95;3.08;;;21.50;58.00;;;;;;5116457;28;20024;-75
2023/06/09 00:24:25;;;;;;;9.07;3.10;;;21.50;58.20;;;;;;5116482;28;20043;-75
2023/06/09 00:26:51;;;;;;;6.18;2.63;;;21.40;57.80;;;;;;5117233;28;20104;-75
2023/06/09 00:29:18;;;;;;;6.72;3.10;;;21.40;58.10;;;;;;5117354;28;20016;-75
2023/06/09 00:31:45;;;;;;;6.18;2.80;;;21.40;57.90;;;;;;5117256;28;20058;-75
2023/06/09 00:34:11;;;;;;;9.25;2.67;;;21.30;58.10;;;;;;5116228;28;20020;-75
2023/06/09 00:36:36;;;;;;;6.45;3.00;;;21.30;58.10;;;;;;5116421;28;20028;-75
2023/06/09 00:39:03;;;;;;;5.97;2.55;;;21.20;58.00;;;;;;5116164;28;20077;-75
2023/06/09 00:41:28;;;;;;;5.90;2.92;;;21.10;58.80;;;;;;5117098;28;20473;-75
2023/06/09 00:43:55;;;;;;;6.57;2.42;;;21.10;58.60;;;;;;5116199;28;20059;-75
2023/06/09 00:46:22;;;;;;;4.88;2.38;;;21.10;58.70;;;;;;5117019;28;20050;-75
2023/06/09 00:48:48;;;;;;;6.82;2.88;;;21.10;58.90;;;;;;5116972;28;20024;-75
2023/06/09 00:51:14;;;;;;;7.90;3.05;;;21.10;59.20;;;;;;5116954;28;20031;-75
2023/06/09 00:53:40;;;;;;;7.03;3.00;;;21.10;59.10;;;;;;5115732;28;20035;-75
2023/06/09 00:56:06;;;;;;;7.40;2.75;;;21.00;59.10;;;;;;5115829;28;20092;-75
2023/06/09 00:58:32;;;;;;;6.97;2.60;;;20.90;59.10;;;;;;5115836;28;20024;-75
2023/06/09 01:00:59;;;;;;;8.75;3.05;;;20.90;60.00;;;;;;5115774;28;20024;-75
2023/06/09 01:03:26;;;;;;;6.13;2.92;;;20.80;58.80;;;;;;5115755;28;20062;-75
2023/06/09 01:06:02;;;;;;;4.68;2.53;;;20.60;59.00;;;;;;5115580;28;20016;-75
2023/06/09 01:08:36;;;;;;;8.65;2.75;;;20.60;59.30;;;;;;5116653;28;20028;-75
2023/06/09 01:11:49;;;;;;;5.32;3.05;;;20.60;59.40;;;;;;5116554;28;20024;-75
2023/06/09 01:14:33;;;;;;;7.78;2.85;;;20.50;58.80;;;;;;5034677;28;20071;-75
2023/06/09 01:17:11;;;;;;;7.97;3.05;;;20.30;59.40;;;;;;5115140;28;20043;-75
2023/06/09 01:19:41;;;;;;;7.32;2.80;;;20.30;60.00;;;;;;5115384;28;20024;-75
2023/06/09 01:22:27;;;;;;;5.72;3.00;;;20.30;60.00;;;;;;5115460;28;20023;-75
2023/06/09 01:24:57;;;;;;;7.00;2.55;;;20.30;59.50;;;;;;5116311;28;20031;-75
2023/06/09 01:27:24;;;;;;;6.22;2.95;;;20.30;60.20;;;;;;5116048;28;20070;-75
2023/06/09 01:29:52;;;;;;;6.57;2.90;;;20.30;60.00;;;;;;5115178;28;20394;-75
2023/06/09 01:32:19;;;;;;;9.68;3.50;;;20.20;60.00;;;;;;5116058;28;20024;-75
2023/06/09 01:34:45;;;;;;;6.20;3.17;;;20.20;60.50;;;;;;5114968;28;20024;-75
2023/06/09 01:37:12;;;;;;;6.40;2.67;;;20.20;60.60;;;;;;5098247;28;20127;-74
2023/06/09 01:39:39;;;;;;;6.72;2.72;;;20.20;60.30;;;;;;5098043;28;20097;-75
2023/06/09 01:42:06;;;;;;;7.03;3.20;;;20.20;60.20;;;;;;5115943;28;20020;-74
2023/06/09 01:44:34;;;;;;;6.88;2.75;;;20.30;60.30;;;;;;5115005;28;20031;-75
2023/06/09 01:46:59;;;;;;;7.70;2.63;;;20.30;60.40;;;;;;5114907;28;20028;-75
2023/06/09 01:49:34;;;;;;;9.18;2.95;;;20.20;60.20;;;;;;5098034;28;20070;-75
2023/06/09 01:52:11;;;;;;;6.60;3.03;;;20.10;60.20;;;;;;5115708;28;20027;-75
2023/06/09 01:54:54;;;;;;;10.15;3.22;;;20.10;60.30;;;;;;5115765;28;20028;-75
2023/06/09 01:57:29;;;;;;;7.45;3.00;;;20.10;60.20;;;;;;5115677;28;20084;-75
2023/06/09 01:59:59;;;;;;;6.53;2.78;;;20.00;60.40;;;;;;5114761;28;20016;-75
2023/06/09 02:02:28;;;;;;;6.93;2.88;;;19.90;60.60;;;;;;5114589;28;20023;-75
2023/06/09 02:04:56;;;;;;;8.30;3.15;;;19.90;61.70;;;;;;5115481;28;20028;-74
2023/06/09 02:07:22;;;;;;;9.00;2.97;;;20.00;61.00;;;;;;5114443;28;20061;-75
2023/06/09 02:09:49;;;;;;;5.85;2.83;;;19.90;61.00;;;;;;5115378;28;20020;-75
2023/06/09 02:12:15;;;;;;;6.22;2.85;;;19.90;61.20;;;;;;5115299;28;20499;-75
2023/06/09 02:14:42;;;;;;;6.82;3.38;;;19.90;60.80;;;;;;5115341;28;20025;-75
2023/06/09 02:17:12;;;;;;;8.98;3.30;;;19.80;61.10;;;;;;5114337;28;20433;-75
2023/06/09 02:19:38;;;;;;;7.00;2.95;;;19.80;61.40;;;;;;5114400;28;20024;-75
2023/06/09 02:22:08;;;;;;;6.93;3.00;;;19.70;61.60;;;;;;5114392;28;20023;-75
2023/06/09 02:24:34;;;;;;;7.95;3.47;;;19.70;61.70;;;;;;5114051;28;20020;-75
2023/06/09 02:27:01;;;;;;;6.57;3.13;;;19.60;61.60;;;;;;5113952;28;20048;-75
2023/06/09 02:29:27;;;;;;;8.20;2.97;;;19.60;62.00;;;;;;5113391;28;20028;-74
2023/06/09 02:31:55;;;;;;;6.30;3.10;;;19.60;62.30;;;;;;5113956;28;20032;-75
2023/06/09 02:34:22;;;;;;;8.98;3.20;;;19.60;62.30;;;;;;5113928;28;20043;-75
2023/06/09 02:36:52;;;;;;;7.22;3.28;;;19.60;62.30;;;;;;5114869;28;20023;-75
2023/06/09 02:39:19;;;;;;;6.07;2.72;;;19.60;62.40;;;;;;5114149;28;20031;-75
2023/06/09 02:41:45;;;;;;;6.88;3.10;;;19.50;62.50;;;;;;5113794;28;20024;-75
2023/06/09 02:44:11;;;;;;;7.85;3.40;;;19.40;62.80;;;;;;5113758;28;20024;-76
2023/06/09 02:46:36;;;;;;;9.90;3.33;;;19.40;62.90;;;;;;5096812;28;20048;-75
2023/06/09 02:49:02;;;;;;;7.05;2.95;;;19.40;63.10;;;;;;5114630;28;20024;-75
2023/06/09 02:51:28;;;;;;;6.43;3.08;;;19.40;63.40;;;;;;5096637;28;20435;-75
2023/06/09 02:53:53;;;;;;;7.63;3.30;;;19.40;63.50;;;;;;5113627;28;20028;-75
2023/06/09 02:56:19;;;;;;;7.15;3.50;;;19.40;63.40;;;;;;5113582;28;20032;-75
2023/06/09 02:58:46;;;;;;;8.05;3.05;;;19.30;63.40;;;;;;5113593;28;20032;-74
2023/06/09 03:01:12;;;;;;;9.40;3.72;;;19.30;63.50;;;;;;5113542;28;20020;-75
2023/06/09 03:03:38;;;;;;;6.22;2.97;;;19.30;64.50;;;;;;5113503;28;20034;-75
2023/06/09 03:06:07;;;;;;;4.88;3.00;;;19.30;63.50;;;;;;5114331;28;20028;-75
2023/06/09 03:08:33;;;;;;;6.57;2.80;;;19.30;63.50;;;;;;5114298;28;20085;-75
2023/06/09 03:10:58;;;;;;;6.80;2.97;;;19.20;63.80;;;;;;5114284;28;20063;-74
2023/06/09 03:13:24;;;;;;;8.93;3.30;;;19.30;64.20;;;;;;5113224;28;20055;-75
2023/06/09 03:15:50;;;;;;;6.75;2.88;;;19.30;64.10;;;;;;5114181;28;20088;-75
2023/06/09 03:18:16;;;;;;;6.97;3.60;;;19.10;64.10;;;;;;5114134;28;20024;-75
2023/06/09 03:20:42;;;;;;;10.27;3.17;;;19.00;64.70;;;;;;5096379;28;20016;-75
2023/06/09 03:23:08;;;;;;;7.00;3.20;;;19.00;64.80;;;;;;5113150;28;20044;-75
2023/06/09 03:25:34;;;;;;;7.20;2.88;;;18.90;65.00;;;;;;5114001;28;20027;-75
2023/06/09 03:28:00;;;;;;;8.05;3.50;;;19.00;65.60;;;;;;5112816;28;20048;-75
2023/06/09 03:30:26;;;;;;;10.43;3.78;;;18.90;65.30;;;;;;5112854;28;20095;-75
2023/06/09 03:32:52;;;;;;;8.85;3.60;;;18.90;65.60;;;;;;5112881;28;20058;-75
2023/06/09 03:35:17;;;;;;;10.55;3.55;;;18.90;65.80;;;;;;5113817;28;20024;-75
2023/06/09 03:37:43;;;;;;;8.55;3.75;;;18.90;65.70;;;;;;5113941;28;20036;-75
2023/06/09 03:40:10;;;;;;;9.82;3.20;;;18.90;65.50;;;;;;5113779;28;20039;-74
2023/06/09 03:42:36;;;;;;;8.02;3.92;;;18.70;65.60;;;;;;5112691;28;20028;-75
2023/06/09 03:45:01;;;;;;;10.25;3.55;;;18.70;66.10;;;;;;5113712;28;20051;-74
2023/06/09 03:47:27;;;;;;;7.50;3.30;;;18.60;66.30;;;;;;5113663;28;20096;-74
2023/06/09 03:49:53;;;;;;;9.20;3.58;;;18.60;66.40;;;;;;5112637;28;20054;-75
2023/06/09 03:52:21;;;;;;;8.70;3.17;;;18.50;66.80;;;;;;5113544;28;20032;-74
2023/06/09 03:54:47;;;;;;;9.43;3.47;;;18.50;66.90;;;;;;5113601;28;20039;-74
2023/06/09 03:57:12;;;;;;;6.85;3.42;;;18.50;66.80;;;;;;5113561;28;20024;-74
2023/06/09 03:59:38;;;;;;;10.90;3.38;;;18.60;66.80;;;;;;5113562;28;20032;-75
2023/06/09 04:02:04;;;;;;;9.30;2.95;;;18.60;67.00;;;;;;5112600;28;20025;-74
2023/06/09 04:04:30;;;;;;;7.60;3.15;;;18.50;67.20;;;;;;5112806;28;20028;-74
2023/06/09 04:06:56;;;;;;;7.38;2.95;;;18.50;67.30;;;;;;5095699;28;20039;-74
2023/06/09 04:09:22;;;;;;;9.68;3.53;;;18.50;67.20;;;;;;5113431;28;20501;-74
2023/06/09 04:11:48;;;;;;;8.85;2.83;;;18.50;67.20;;;;;;5113363;28;20107;-74
2023/06/09 04:14:13;;;;;;;9.43;3.42;;;18.50;67.20;;;;;;5113435;28;20029;-74
2023/06/09 04:16:39;;;;;;;10.73;3.10;;;18.60;67.40;;;;;;5112349;28;20127;-74
2023/06/09 04:19:05;;;;;;;10.18;3.65;;;18.60;67.50;;;;;;5112581;28;20016;-74
2023/06/09 04:21:32;;;;;;;10.10;3.70;;;18.70;67.70;;;;;;5113314;28;20054;-74
2023/06/09 04:23:58;;;;;;;13.25;4.00;;;18.70;67.40;;;;;;5113324;28;20024;-74
2023/06/09 04:26:23;;;;;;;9.32;3.05;;;18.60;67.70;;;;;;5112218;28;20027;-74
2023/06/09 04:28:49;;;;;;;6.68;3.17;;;18.50;67.80;;;;;;5112079;28;20491;-74
2023/06/09 04:31:18;;;;;;;11.25;3.38;;;18.60;68.10;;;;;;5112367;28;20043;-75
2023/06/09 04:33:46;;;;;;;9.68;3.50;;;18.60;68.10;;;;;;5095657;28;20024;-75
2023/06/09 04:36:13;;;;;;;10.52;3.47;;;18.50;68.10;;;;;;5112274;28;20024;-75
2023/06/09 04:38:39;;;;;;;5.55;3.30;;;18.50;68.30;;;;;;5112333;28;20107;-75
2023/06/09 04:41:04;;;;;;;8.05;3.08;;;18.50;68.50;;;;;;5112293;28;20046;-75
2023/06/09 04:43:33;;;;;;;9.25;3.17;;;18.60;68.60;;;;;;5112132;28;20032;-74
2023/06/09 04:45:59;;;;;;;9.27;3.63;;;18.60;68.60;;;;;;5113124;28;20025;-74
2023/06/09 04:48:25;;;;;;;8.75;3.50;;;18.60;68.60;;;;;;5112131;28;20058;-74
2023/06/09 04:50:51;;;;;;;7.63;3.38;;;18.70;68.80;;;;;;5113067;28;20533;-75
2023/06/09 04:53:19;;;;;;;9.77;3.30;;;18.70;68.90;;;;;;5114914;28;20016;-75
2023/06/09 04:55:45;;;;;;;9.43;3.55;;;18.70;69.10;;;;;;5116893;28;20016;-75
2023/06/09 04:58:11;;;;;;;8.63;3.25;;;18.70;68.90;;;;;;5098926;28;20055;-75
2023/06/09 05:00:37;;;;;;;19.45;3.80;;;18.80;68.90;;;;;;5116794;28;20012;-75
2023/06/09 05:03:03;;;;;;;7.38;3.15;;;18.90;68.90;;;;;;5116720;28;20106;-75
2023/06/09 05:05:28;;;;;;;11.18;3.60;;;18.80;69.10;;;;;;5115643;28;20027;-75
2023/06/09 05:07:54;;;;;;;12.70;3.53;;;18.90;69.20;;;;;;5116669;28;20025;-75
2023/06/09 05:10:21;;;;;;;11.90;3.97;;;18.90;69.30;;;;;;5116570;28;20054;-77
2023/06/09 05:12:46;;;;;;;10.98;3.88;;;18.90;69.40;;;;;;5116521;28;20020;-77
2023/06/09 05:15:12;;;;;;;10.30;3.40;;;18.90;69.60;;;;;;5116460;28;20035;-77
2023/06/09 05:17:38;;;;;;;6.57;3.20;;;18.90;69.60;;;;;;5098650;28;20028;-76
2023/06/09 05:20:07;;;;;;;8.35;3.10;;;19.00;69.60;;;;;;5115534;28;20031;-76
2023/06/09 05:22:33;;;;;;;10.38;3.85;;;19.00;69.60;;;;;;5115445;28;20028;-76
2023/06/09 05:24:58;;;;;;;11.45;4.20;;;19.00;69.80;;;;;;5116293;28;20163;-76
2023/06/09 05:27:24;;;;;;;11.07;4.00;;;19.00;69.90;;;;;;5115298;28;20392;-76
2023/06/09 05:29:49;;;;;;;7.60;3.75;;;19.00;69.90;;;;;;5116186;28;20046;-76
2023/06/09 05:32:15;;;;;;;9.45;3.85;;;18.90;70.20;;;;;;5116222;28;20468;-76
2023/06/09 05:34:44;;;;;;;9.25;3.40;;;18.90;70.30;;;;;;5116051;28;20046;-76
2023/06/09 05:37:13;;;;;;;11.48;4.15;;;19.00;70.40;;;;;;5116049;28;20028;-76
2023/06/09 05:39:39;;;;;;;9.63;3.75;;;19.00;70.60;;;;;;5115923;28;20050;-76
2023/06/09 05:42:06;;;;;;;9.10;3.75;;;19.00;70.80;;;;;;5115009;28;20043;-76
2023/06/09 05:44:32;;;;;;;13.50;4.63;;;19.00;71.10;;;;;;5115914;28;20020;-76
2023/06/09 05:46:57;;;;;;;11.13;4.28;;;18.90;71.40;;;;;;5115894;28;20024;-75
2023/06/09 05:49:23;;;;;;;8.13;4.20;;;19.00;71.50;;;;;;5115804;28;20063;-76
2023/06/09 05:51:49;;;;;;;10.35;4.22;;;19.00;71.60;;;;;;5114639;28;20100;-75
2023/06/09 05:54:14;;;;;;;8.77;4.20;;;19.10;71.60;;;;;;5114736;28;20021;-76
2023/06/09 05:56:40;;;;;;;11.68;4.80;;;19.10;71.90;;;;;;5097803;28;20028;-75
2023/06/09 05:59:06;;;;;;;11.18;4.22;;;19.10;71.80;;;;;;5114856;28;20058;-75
2023/06/09 06:01:32;;;;;;;9.48;4.63;;;19.10;72.00;;;;;;5114760;28;20096;-76
2023/06/09 06:03:58;;;;;;;13.65;4.85;;;19.10;72.10;;;;;;5113466;28;20503;-76
2023/06/09 06:06:24;;;;;;;10.75;4.57;;;19.20;72.30;;;;;;5097558;28;20102;-75
2023/06/09 06:08:50;;;;;;;10.50;4.85;;;19.20;72.70;;;;;;5115450;28;20030;-76
2023/06/09 06:11:16;;;;;;;13.18;5.05;;;19.20;72.50;;;;;;5114528;28;20059;-76
2023/06/09 06:13:41;;;;;;;8.82;4.10;;;19.30;72.70;;;;;;5114312;28;20020;-75
2023/06/09 06:16:07;;;;;;;9.07;4.68;;;19.30;72.50;;;;;;5114264;28;20035;-75
2023/06/09 06:18:32;;;;;;;11.50;5.43;;;19.40;72.80;;;;;;5114269;28;20024;-75
2023/06/09 06:20:58;;;;;;;13.43;5.55;;;19.50;73.00;;;;;;5114205;28;20028;-75
2023/06/09 06:23:24;;;;;;;9.30;5.32;;;19.50;72.70;;;;;;5114308;28;20031;-75
2023/06/09 06:25:51;;;;;;;11.70;5.65;;;19.60;72.90;;;;;;5114200;28;20028;-75
2023/06/09 06:28:19;;;;;;;9.80;5.70;;;19.60;73.10;;;;;;5114867;28;20082;-75
2023/06/09 06:30:45;;;;;;;12.10;6.43;;;19.70;73.10;;;;;;5115159;28;20032;-75
2023/06/09 06:33:11;;;;;;;12.68;6.13;;;19.80;73.50;;;;;;5114816;28;20028;-75
2023/06/09 06:35:36;;;;;;;12.38;5.93;;;19.80;72.80;;;;;;5114912;28;20032;-75
2023/06/09 06:38:02;;;;;;;12.85;6.72;;;19.80;73.10;;;;;;5113799;28;20038;-75
2023/06/09 06:40:28;;;;;;;11.65;6.65;;;19.90;72.90;;;;;;5114983;28;20020;-75
2023/06/09 06:42:54;;;;;;;13.52;6.68;;;19.90;73.10;;;;;;5113832;28;20038;-75
2023/06/09 06:45:20;;;;;;;12.30;6.30;;;20.00;73.10;;;;;;5096941;28;20032;-75
2023/06/09 06:47:45;;;;;;;12.52;6.25;;;20.00;73.10;;;;;;5113742;28;20032;-75
2023/06/09 06:50:12;;;;;;;14.43;7.40;;;20.10;73.50;;;;;;5113676;28;20103;-75
2023/06/09 06:52:38;;;;;;;12.98;7.35;;;20.10;73.20;;;;;;5114650;28;20028;-75
2023/06/09 06:55:07;;;;;;;13.18;7.20;;;20.10;73.20;;;;;;5113593;28;20075;-75
2023/06/09 06:57:36;;;;;;;13.55;7.07;;;20.20;73.00;;;;;;5113565;28;20021;-76
2023/06/09 07:00:13;;;;;;;13.32;6.80;;;20.30;73.00;;;;;;5113466;28;20049;-75
2023/06/09 07:02:40;;;;;;;13.90;7.13;;;20.30;73.20;;;;;;5113475;28;20027;-76
2023/06/09 07:05:06;;;;;;;10.55;7.07;;;20.40;73.50;;;;;;5114389;28;20031;-75
2023/06/09 07:07:32;;;;;;;13.88;7.18;;;20.50;73.90;;;;;;5113347;28;20020;-76
2023/06/09 07:09:58;;;;;;;12.85;7.78;;;20.60;73.40;;;;;;5114296;28;20031;-76
2023/06/09 07:12:24;;;;;;;12.32;7.28;;;20.70;73.60;;;;;;5113118;28;20036;-75
2023/06/09 07:14:50;;;;;;;13.38;7.18;;;20.80;73.60;;;;;;5114045;28;20038;-75
2023/06/09 07:17:16;;;;;;;12.13;7.55;;;20.90;72.40;;;;;;5114159;28;20091;-75
2023/06/09 07:19:41;;;;;;;15.52;7.85;;;20.90;72.70;;;;;;5114064;28;20020;-75
2023/06/09 07:22:07;;;;;;;13.65;7.63;;;21.00;72.90;;;;;;5113087;28;20483;-75
2023/06/09 07:24:33;;;;;;;13.07;8.13;;;21.00;72.50;;;;;;5096166;28;20017;-75
2023/06/09 07:26:58;;;;;;;12.63;7.70;;;21.10;72.70;;;;;;5113088;28;20486;-76
2023/06/09 07:29:24;;;;;;;13.68;7.70;;;21.20;72.30;;;;;;5113830;28;20072;-76
2023/06/09 07:31:50;;;;;;;14.80;8.30;;;21.30;72.70;;;;;;5112830;28;20028;-76
2023/06/09 07:34:15;;;;;;;13.38;8.25;;;21.40;72.70;;;;;;5113778;28;20592;-76
2023/06/09 07:36:41;;;;;;;14.70;8.90;;;21.50;71.70;;;;;;5095951;28;20118;-76
2023/06/09 07:39:07;;;;;;;13.00;8.07;;;21.50;71.40;;;;;;5113811;28;20087;-76
2023/06/09 07:41:33;;;;;;;11.82;8.07;;;21.50;71.60;;;;;;5113899;28;20028;-76
2023/06/09 07:43:59;;;;;;;14.07;8.00;;;21.40;71.40;;;;;;5113735;28;20059;-76
2023/06/09 07:46:25;;;;;;;13.50;7.43;;;21.50;71.70;;;;;;5112711;28;20032;-77
2023/06/09 07:48:51;;;;;;;12.75;7.90;;;21.60;72.30;;;;;;5113714;28;20020;-76
2023/06/09 07:51:16;;;;;;;14.20;8.55;;;21.70;71.70;;;;;;5112761;28;20052;-76
2023/06/09 07:53:42;;;;;;;14.48;7.93;;;21.80;71.60;;;;;;5095702;28;20092;-76
2023/06/09 07:56:08;;;;;;;12.45;6.80;;;21.80;71.50;;;;;;5112576;28;20039;-76
2023/06/09 07:58:34;;;;;;;13.32;7.63;;;21.90;71.60;;;;;;5095787;28;20052;-76
2023/06/09 08:01:00;;;;;;;11.43;7.20;;;22.00;71.70;;;;;;5095715;28;20028;-76
2023/06/09 08:03:28;;;;;;;12.77;7.85;;;22.10;71.60;;;;;;5113524;28;20020;-76
2023/06/09 08:05:55;;;;;;;16.98;8.13;;;22.20;71.50;;;;;;5112571;28;20055;-76
2023/06/09 08:08:21;;;;;;;13.40;8.43;;;22.20;71.20;;;;;;5113493;28;20032;-74
2023/06/09 08:10:46;;;;;;;11.98;7.82;;;22.40;71.10;;;;;;5095532;28;20142;-74
2023/06/09 08:13:15;;;;;;;14.82;7.70;;;22.40;70.80;;;;;;5112459;28;20062;-74
2023/06/09 08:15:41;;;;;;;11.32;7.32;;;22.50;70.30;;;;;;5095953;28;20027;-75
2023/06/09 08:18:06;;;;;;;13.35;7.60;;;22.50;70.30;;;;;;5112382;28;20095;-74
2023/06/09 08:20:32;;;;;;;12.82;7.65;;;22.60;70.50;;;;;;5112437;28;20035;-74
2023/06/09 08:22:58;;;;;;;11.70;7.10;;;22.70;70.70;;;;;;5112410;28;20039;-74
2023/06/09 08:25:24;;;;;;;11.60;7.90;;;22.80;71.00;;;;;;5112540;28;20024;-74
2023/06/09 08:27:49;;;;;;;15.77;9.30;;;22.90;70.40;;;;;;5114566;28;20044;-74
2023/06/09 08:30:15;;;;;;;11.82;8.02;;;23.00;68.90;;;;;;5117461;28;20088;-74
2023/06/09 08:32:41;;;;;;;12.13;7.40;;;23.00;69.20;;;;;;5117271;28;20052;-74
2023/06/09 08:35:08;;;;;;;12.43;7.88;;;23.00;69.60;;;;;;5116274;28;20100;-74
2023/06/09 08:37:35;;;;;;;13.90;7.78;;;23.10;69.20;;;;;;5117194;28;20028;-74
2023/06/09 08:40:04;;;;;;;15.43;7.68;;;23.10;69.70;;;;;;5116330;28;20084;-75
2023/06/09 08:42:31;;;;;;;14.13;7.90;;;23.20;68.80;;;;;;5116092;28;20036;-74
2023/06/09 08:45:03;;;;;;;11.00;7.50;;;23.30;68.40;;;;;;5116185;28;20028;-74
2023/06/09 08:47:30;;;;;;;17.23;8.02;;;23.40;68.80;;;;;;5117085;28;20102;-74
2023/06/09 08:49:59;;;;;;;13.43;7.65;;;23.50;68.70;;;;;;5116969;28;20024;-75
2023/06/09 08:52:27;;;;;;;10.40;7.28;;;23.60;68.20;;;;;;5116944;28;20059;-74
2023/06/09 08:54:57;;;;;;;13.30;7.15;;;23.60;68.60;;;;;;5115822;28;20020;-74
2023/06/09 08:57:23;;;;;;;13.20;7.70;;;23.70;68.70;;;;;;5116912;28;20028;-74
2023/06/09 08:59:50;;;;;;;11.68;6.95;;;23.80;68.60;;;;;;5116786;28;20061;-75
2023/06/09 09:02:17;;;;;;;12.48;7.13;;;23.90;68.40;;;;;;5116777;28;20020;-74
2023/06/09 09:04:43;;;;;;;9.88;7.30;;;24.00;68.60;;;;;;5116675;28;20027;-73
2023/06/09 09:07:11;;;;;;;11.40;7.60;;;24.10;67.80;;;;;;5115636;28;20036;-74
2023/06/09 09:09:40;;;;;;;9.82;7.07;;;24.20;66.90;;;;;;5116593;28;20050;-74
2023/06/09 09:12:12;;;;;;;15.18;7.55;;;24.20;66.60;;;;;;5116648;28;20020;-73
2023/06/09 09:14:43;;;;;;;11.75;7.50;;;24.30;65.70;;;;;;5116581;28;20028;-74
2023/06/09 09:17:13;;;;;;;11.50;7.75;;;24.30;65.90;;;;;;5115473;28;20028;-74
2023/06/09 09:19:45;;;;;;;13.20;8.23;;;24.40;65.60;;;;;;5115441;28;20040;-74
2023/06/09 09:22:11;;;;;;;9.43;6.75;;;24.40;64.80;;;;;;5116463;28;20075;-74
2023/06/09 09:24:42;;;;;;;11.43;6.97;;;24.50;65.90;;;;;;5116368;28;20024;-74
2023/06/09 09:27:18;;;;;;;11.00;7.67;;;24.50;65.60;;;;;;5116383;28;20016;-74
2023/06/09 09:29:45;;;;;;;13.45;6.95;;;24.60;65.20;;;;;;5116137;28;20282;-74
2023/06/09 09:32:10;;;;;;;10.13;8.05;;;24.70;65.10;;;;;;5115062;28;20024;-74
2023/06/09 09:34:40;;;;;;;11.88;7.50;;;24.80;64.70;;;;;;5116106;28;20051;-74
2023/06/09 09:37:10;;;;;;;15.38;8.23;;;24.90;64.00;;;;;;5115229;28;20023;-74
2023/06/09 09:39:50;;;;;;;11.05;7.80;;;25.00;63.20;;;;;;5115900;28;20123;-74
2023/06/09 09:42:16;;;;;;;11.90;7.47;;;25.10;61.50;;;;;;5116081;28;20024;-74
2023/06/09 09:44:46;;;;;;;9.73;7.00;;;25.20;61.30;;;;;;5114972;28;20024;-74
2023/06/09 09:47:13;;;;;;;13.57;7.45;;;25.20;62.30;;;;;;5115997;28;20024;-74
2023/06/09 09:49:50;;;;;;;10.32;7.10;;;25.30;61.90;;;;;;5115841;28;20044;-75
2023/06/09 09:52:33;;;;;;;14.82;7.15;;;25.50;62.20;;;;;;5114882;28;20032;-75
2023/06/09 09:55:00;;;;;;;15.02;8.02;;;25.60;63.00;;;;;;5115891;28;20020;-75
2023/06/09 09:57:30;;;;;;;9.95;7.20;;;25.70;62.90;;;;;;5115705;28;20025;-75
2023/06/09 09:59:59;;;;;;;8.18;6.85;;;25.80;62.40;;;;;;5097841;28;20035;-75
2023/06/09 10:02:25;;;;;;;11.30;6.38;;;25.80;62.20;;;;;;5114788;28;20035;-75
2023/06/09 10:04:52;;;;;;;10.02;6.93;;;25.90;62.00;;;;;;5115666;28;20027;-75
2023/06/09 10:07:23;;;;;;;9.18;6.70;;;26.00;61.30;;;;;;5115585;28;20449;-75
2023/06/09 10:09:53;;;;;;;9.38;6.88;;;26.10;60.50;;;;;;5115564;28;20031;-75
2023/06/09 10:12:20;;;;;;;9.82;6.50;;;26.20;61.10;;;;;;5114277;28;20027;-75
2023/06/09 10:14:48;;;;;;;8.88;6.05;;;26.30;59.30;;;;;;5115532;28;20023;-75
2023/06/09 10:17:15;;;;;;;8.32;6.20;;;26.30;60.30;;;;;;5114332;28;20022;-75
2023/06/09 10:19:42;;;;;;;8.90;6.53;;;26.40;56.60;;;;;;5115253;28;20031;-75
2023/06/09 10:22:08;;;;;;;9.10;6.90;;;26.50;55.50;;;;;;5115212;28;20032;-75
2023/06/09 10:24:36;;;;;;;8.52;5.93;;;26.40;53.40;;;;;;5114088;28;20040;-75
2023/06/09 10:27:04;;;;;;;6.97;5.43;;;26.40;55.80;;;;;;5115073;28;20023;-75
2023/06/09 10:29:29;;;;;;;9.73;5.30;;;26.50;56.30;;;;;;5113913;28;20048;-75
2023/06/09 10:31:57;;;;;;;8.57;5.63;;;26.50;56.90;;;;;;5115137;28;20144;-75
2023/06/09 10:34:23;;;;;;;7.53;5.72;;;26.70;56.40;;;;;;5114903;28;20028;-75
2023/06/09 10:36:53;;;;;;;8.02;6.13;;;26.80;54.80;;;;;;5113924;28;20028;-75
2023/06/09 10:39:30;;;;;;;11.20;6.00;;;26.80;52.10;;;;;;5114984;28;20058;-75
2023/06/09 10:42:10;;;;;;;10.52;6.10;;;26.80;52.60;;;;;;5113867;28;20028;-75
2023/06/09 10:44:45;;;;;;;9.20;5.97;;;26.70;52.50;;;;;;5114971;28;20020;-75
2023/06/09 10:47:11;;;;;;;6.28;5.68;;;26.80;52.90;;;;;;5113723;28;20020;-75
2023/06/09 10:49:40;;;;;;;7.82;6.10;;;26.90;55.20;;;;;;5113156;28;20080;-74
2023/06/09 10:52:35;;;;;;;9.75;5.68;;;27.00;54.50;;;;;;5113699;28;20051;-75
2023/06/09 10:55:15;;;;;;;6.57;5.47;;;27.10;53.10;;;;;;5078161;28;20040;-74
2023/06/09 10:57:41;;;;;;;8.02;5.70;;;27.20;52.90;;;;;;5114580;28;20023;-75
2023/06/09 11:00:11;;;;;;;8.13;5.45;;;27.30;51.10;;;;;;5113545;28;20080;-75
2023/06/09 11:02:44;;;;;;;6.97;5.63;;;27.30;51.40;;;;;;5113609;28;20031;-74
2023/06/09 11:05:10;;;;;;;9.38;5.32;;;27.30;51.00;;;;;;5114356;28;20032;-75
2023/06/09 11:08:02;;;;;;;7.70;5.75;;;27.40;51.40;;;;;;5114353;28;20027;-75
2023/06/09 11:10:28;;;;;;;7.65;5.47;;;27.50;53.10;;;;;;5114515;28;20024;-75
2023/06/09 11:12:55;;;;;;;6.88;5.65;;;27.50;51.10;;;;;;5114116;28;20024;-75
2023/06/09 11:15:21;;;;;;;8.02;5.88;;;27.70;52.20;;;;;;5096545;28;20024;-75
2023/06/09 11:17:48;;;;;;;6.22;5.60;;;27.70;48.80;;;;;;5113240;28;20111;-75
2023/06/09 11:20:17;;;;;;;7.82;5.70;;;27.80;49.80;;;;;;5113081;28;20031;-75
2023/06/09 11:22:53;;;;;;;8.07;5.07;;;27.90;49.90;;;;;;5114102;28;20050;-75
2023/06/09 11:25:18;;;;;;;6.82;5.28;;;27.90;49.20;;;;;;5114286;28;20079;-75
2023/06/09 11:27:54;;;;;;;6.72;5.20;;;28.00;48.50;;;;;;5113873;28;20027;-75
2023/06/09 11:30:21;;;;;;;7.43;5.07;;;28.00;46.20;;;;;;5114118;28;20035;-75
2023/06/09 11:32:50;;;;;;;8.23;5.80;;;28.00;44.20;;;;;;5113026;28;20059;-75
2023/06/09 11:35:25;;;;;;;7.03;5.47;;;27.90;44.20;;;;;;5112814;28;20020;-75
2023/06/09 11:37:56;;;;;;;7.28;5.70;;;28.00;44.00;;;;;;5113849;28;20027;-75
2023/06/09 11:40:22;;;;;;;13.75;6.25;;;28.00;44.70;;;;;;5113876;28;20483;-75
2023/06/09 11:42:48;;;;;;;8.32;5.80;;;27.90;43.50;;;;;;5112853;28;20026;-75
2023/06/09 11:45:15;;;;;;;6.38;5.28;;;27.90;44.00;;;;;;5113753;28;20024;-75
2023/06/09 11:47:42;;;;;;;5.82;5.18;;;28.00;45.90;;;;;;5112831;28;20028;-75
2023/06/09 11:50:11;;;;;;;6.53;5.00;;;28.10;45.70;;;;;;5095991;28;20031;-75
2023/06/09 11:52:38;;;;;;;7.30;5.78;;;28.30;45.80;;;;;;5113596;28;20447;-75
2023/06/09 11:55:05;;;;;;;7.53;6.03;;;28.40;44.90;;;;;;5113555;28;20039;-75
2023/06/09 11:57:35;;;;;;;8.43;5.95;;;28.40;44.00;;;;;;5113626;28;20039;-75
2023/06/09 12:00:14;;;;;;;7.32;5.82;;;28.50;44.50;;;;;;5113599;28;20107;-75
2023/06/09 12:02:41;;;;;;;7.18;5.70;;;28.50;42.50;;;;;;5111730;28;20108;-75
2023/06/09 12:05:12;;;;;;;6.50;5.75;;;28.30;42.00;;;;;;5113490;28;20059;-75
2023/06/09 12:07:41;;;;;;;7.05;5.30;;;28.30;43.80;;;;;;5113544;28;20028;-75
2023/06/09 12:10:07;;;;;;;8.30;5.75;;;28.50;43.10;;;;;;5112495;28;20028;-75
2023/06/09 12:12:45;;;;;;;8.27;6.07;;;28.40;41.70;;;;;;5112463;28;20058;-75
2023/06/09 12:15:11;;;;;;;10.90;6.60;;;28.50;41.00;;;;;;5112455;28;20027;-75
2023/06/09 12:17:38;;;;;;;9.13;6.55;;;28.50;41.10;;;;;;5112404;28;20021;-75
2023/06/09 12:20:28;;;;;;;8.55;6.10;;;28.60;43.60;;;;;;5112402;28;20038;-75
2023/06/09 12:22:56;;;;;;;7.07;5.78;;;28.80;41.80;;;;;;5112318;28;20090;-75
2023/06/09 12:25:27;;;;;;;8.02;5.90;;;28.90;42.30;;;;;;5113334;28;20024;-75
2023/06/09 12:27:53;;;;;;;9.95;5.97;;;28.90;40.80;;;;;;5113251;28;20024;-75
2023/06/09 12:30:33;;;;;;;8.88;6.72;;;29.00;41.60;;;;;;5113368;28;20075;-75
2023/06/09 12:33:08;;;;;;;9.02;7.07;;;28.90;40.60;;;;;;5113187;28;20423;-75
2023/06/09 12:35:41;;;;;;;7.93;6.95;;;28.90;40.10;;;;;;5113228;28;20016;-75
2023/06/09 12:38:18;;;;;;;8.32;7.20;;;28.90;41.00;;;;;;5095464;28;20031;-75
2023/06/09 12:41:07;;;;;;;6.97;5.97;;;29.00;41.10;;;;;;5096483;28;20040;-75
2023/06/09 12:44:02;;;;;;;10.75;6.00;;;29.10;43.20;;;;;;5113256;28;20054;-75
2023/06/09 12:46:38;;;;;;;8.32;6.38;;;29.20;41.80;;;;;;5095797;28;20036;-75
2023/06/09 12:49:07;;;;;;;8.40;6.18;;;29.10;41.50;;;;;;5112136;28;20052;-75